Time;durP1;ratioP1;P1;durP2;ratioP2;P2;SDS_P1;SDS_P2;PMS_P1;PMS_P2;Temp;Humidity;BMP_temperature;BMP_pressure;BME280_temperature;BME280_humidity;BME280_pressure;Samples;Min_cycle;Max_cycle;Signal;HPM_P1;HPM_P2
2021/08/04 00:01:12;;;;;;;3.10;1.70;;;14.30;99.90;;;11.94;100.00;101596.81;3629470;39;20296;-83
2021/08/04 00:03:39;;;;;;;1.60;1.50;;;13.40;99.90;;;11.91;100.00;101600.63;3608843;39;20554;-84
2021/08/04 00:06:06;;;;;;;2.57;1.60;;;14.20;99.90;;;11.90;100.00;101596.25;3613682;39;21045;-84
2021/08/04 00:08:33;;;;;;;1.67;1.30;;;14.40;99.90;;;11.87;100.00;101594.66;3628598;39;20261;-85
2021/08/04 00:11:02;;;;;;;1.80;1.70;;;13.90;99.90;;;11.92;100.00;101590.75;3615580;39;20266;-83
2021/08/04 00:13:29;;;;;;;1.73;1.60;;;13.30;99.90;;;11.91;100.00;101597.94;3665729;22;20258;-84
2021/08/04 00:15:56;;;;;;;2.70;1.70;;;14.50;99.90;;;11.90;100.00;101617.69;3620737;39;20287;-83
2021/08/04 00:18:23;;;;;;;2.23;1.83;;;14.50;99.90;;;11.86;100.00;101605.56;3628542;39;20331;-84
2021/08/04 00:20:50;;;;;;;2.10;1.80;;;13.40;99.90;;;11.87;100.00;101613.44;3631827;39;20786;-83
2021/08/04 00:23:17;;;;;;;2.70;1.93;;;13.40;99.90;;;11.81;100.00;101602.41;3630268;39;20258;-85
2021/08/04 00:25:44;;;;;;;2.30;1.50;;;14.60;99.90;;;11.91;100.00;101603.31;3609239;39;20715;-84
2021/08/04 00:28:13;;;;;;;2.83;1.70;;;13.40;99.90;;;11.91;100.00;101599.78;3626852;39;20721;-84
2021/08/04 00:30:40;;;;;;;1.80;1.70;;;14.00;99.90;;;11.88;100.00;101590.16;3611582;39;20473;-85
2021/08/04 00:33:07;;;;;;;2.00;1.80;;;13.50;99.90;;;11.92;100.00;101594.28;3609892;39;20292;-84
2021/08/04 00:35:35;;;;;;;3.03;1.83;;;14.10;99.90;;;11.90;100.00;101590.88;3612210;39;20254;-85
2021/08/04 00:38:09;;;;;;;2.00;1.50;;;13.60;99.90;;;11.95;100.00;101602.06;3609949;39;20653;-85
2021/08/04 00:40:36;;;;;;;2.43;1.17;;;13.80;99.90;;;11.97;100.00;101601.94;3618662;39;20248;-85
2021/08/04 00:43:03;;;;;;;2.63;1.87;;;13.50;99.90;;;11.94;100.00;101613.78;3623119;39;20258;-85
2021/08/04 00:45:32;;;;;;;1.67;1.40;;;14.70;99.90;;;11.89;100.00;101613.31;3620064;39;20797;-85
2021/08/04 00:47:59;;;;;;;2.47;2.20;;;13.50;99.90;;;12.00;100.00;101621.25;3622645;39;20710;-85
2021/08/04 00:50:27;;;;;;;2.27;1.97;;;13.60;99.90;;;12.02;100.00;101630.03;3612212;39;20309;-84
2021/08/04 00:52:54;;;;;;;2.20;1.40;;;14.50;99.90;;;12.00;100.00;101632.00;3618799;39;20313;-85
2021/08/04 00:55:21;;;;;;;2.43;1.67;;;14.00;99.90;;;11.98;100.00;101643.88;3623933;39;20321;-85
2021/08/04 00:57:49;;;;;;;2.10;1.67;;;14.00;99.90;;;11.99;100.00;101649.06;3623468;39;20537;-84
2021/08/04 01:00:16;;;;;;;4.70;2.23;;;14.50;99.90;;;11.95;100.00;101660.22;3611062;39;20426;-82
2021/08/04 01:02:52;;;;;;;1.40;1.20;;;13.60;99.90;;;12.00;100.00;101676.75;3620784;39;20235;-83
2021/08/04 01:05:27;;;;;;;7.90;2.10;;;14.30;99.90;;;12.01;100.00;101681.97;3631406;39;20518;-83
2021/08/04 01:08:04;;;;;;;2.60;2.03;;;14.70;99.90;;;11.99;100.00;101691.16;3623365;39;20250;-84
2021/08/04 01:10:38;;;;;;;3.57;2.33;;;13.70;99.90;;;12.03;100.00;101688.06;3622500;39;20679;-83
2021/08/04 01:13:13;;;;;;;1.97;1.37;;;14.80;99.90;;;12.05;100.00;101687.94;3614691;39;20570;-85
2021/08/04 01:15:47;;;;;;;2.20;1.83;;;13.60;99.90;;;11.98;100.00;101730.56;3611908;39;20254;-83
2021/08/04 01:18:23;;;;;;;1.83;1.50;;;13.60;99.90;;;12.10;100.00;101732.19;3625537;39;20302;-86
2021/08/04 01:20:51;;;;;;;1.67;1.50;;;13.60;99.90;;;11.98;100.00;101727.03;3613423;39;20746;-84
2021/08/04 01:23:33;;;;;;;3.87;1.77;;;14.60;99.90;;;11.94;100.00;101704.97;3606995;39;20980;-86
2021/08/04 01:26:06;;;;;;;1.97;1.70;;;13.50;99.90;;;11.81;100.00;101691.75;3624091;39;20259;-85
2021/08/04 01:28:43;;;;;;;1.70;1.50;;;13.60;99.90;;;11.84;100.00;101712.13;3615815;39;20264;-86
2021/08/04 01:31:14;;;;;;;1.70;1.60;;;13.50;99.90;;;11.74;100.00;101725.44;3617869;39;20495;-85
2021/08/04 01:33:47;;;;;;;2.13;1.93;;;13.40;99.90;;;11.79;100.00;101730.41;3659834;22;20316;-84
2021/08/04 01:36:14;;;;;;;7.13;1.60;;;13.90;99.90;;;11.70;100.00;101733.84;3627211;39;20251;-85
2021/08/04 01:38:44;;;;;;;1.77;1.67;;;13.40;99.90;;;11.72;100.00;101702.41;3658697;22;20388;-84
2021/08/04 01:41:14;;;;;;;2.50;1.83;;;13.30;99.90;;;11.83;100.00;101667.50;3624337;39;20665;-84
2021/08/04 01:43:43;;;;;;;3.57;2.50;;;13.70;99.90;;;11.74;100.00;101719.22;3612045;39;20583;-87
2021/08/04 01:46:14;;;;;;;2.30;2.00;;;13.40;99.90;;;11.66;100.00;101775.31;3622086;39;20914;-85
2021/08/04 01:48:44;;;;;;;3.07;2.03;;;13.30;99.90;;;11.76;100.00;101744.94;3655012;22;20263;-83
2021/08/04 01:51:14;;;;;;;4.83;2.40;;;14.60;99.90;;;11.72;100.00;101732.75;3624022;39;20245;-86
2021/08/04 01:53:44;;;;;;;4.33;2.03;;;13.30;99.90;;;11.68;100.00;101784.94;3662058;22;21004;-84
2021/08/04 01:56:14;;;;;;;3.17;2.13;;;13.60;99.90;;;11.59;100.00;101710.66;3620753;39;20574;-85
2021/08/04 01:58:47;;;;;;;2.67;1.93;;;13.30;99.90;;;11.57;100.00;101744.75;3615110;39;20244;-85
2021/08/04 02:01:14;;;;;;;1.60;1.50;;;14.50;99.90;;;11.65;100.00;101738.75;3613728;39;20653;-85
2021/08/04 02:03:42;;;;;;;3.20;2.00;;;13.90;99.90;;;11.53;100.00;101721.88;3612295;39;21085;-83
2021/08/04 02:06:19;;;;;;;2.80;2.07;;;13.90;99.90;;;11.52;100.00;101712.13;3612142;39;20303;-84
2021/08/04 02:08:59;;;;;;;1.83;1.53;;;13.20;99.90;;;11.48;100.00;101684.75;3613900;39;20259;-85
2021/08/04 02:11:46;;;;;;;2.60;2.03;;;13.70;99.90;;;11.63;100.00;101727.28;3612383;39;20228;-84
2021/08/04 02:14:22;;;;;;;2.03;1.73;;;13.20;99.90;;;11.57;100.00;101652.78;3608860;39;20628;-85
2021/08/04 02:17:02;;;;;;;2.00;1.70;;;13.20;99.90;;;11.60;100.00;101701.63;3611759;39;20982;-83
2021/08/04 02:19:37;;;;;;;2.13;1.93;;;14.40;99.90;;;11.57;100.00;101623.28;3612340;39;20255;-87
2021/08/04 02:22:08;;;;;;;2.90;1.97;;;13.60;99.90;;;11.61;100.00;101647.03;3613401;39;20227;-83
2021/08/04 02:24:45;;;;;;;2.60;1.80;;;13.10;99.90;;;11.55;100.00;101674.34;3605811;39;21938;-83
2021/08/04 02:27:14;;;;;;;5.80;1.97;;;13.10;99.90;;;11.46;100.00;101626.88;3610131;39;20477;-85
2021/08/04 02:29:48;;;;;;;2.93;2.20;;;13.50;99.90;;;11.38;100.00;101665.03;3614768;39;20561;-85
2021/08/04 02:32:15;;;;;;;2.57;1.77;;;14.20;99.90;;;11.33;100.00;101653.03;3651994;22;20873;-85
2021/08/04 02:34:43;;;;;;;2.97;2.27;;;12.90;99.90;;;11.27;100.00;101613.34;3626513;39;21190;-86
2021/08/04 02:37:10;;;;;;;2.00;1.80;;;14.10;99.90;;;11.35;100.00;101645.72;3623009;39;20565;-84
2021/08/04 02:39:37;;;;;;;2.67;2.03;;;13.80;99.90;;;11.40;100.00;101614.00;3622016;39;20656;-85
2021/08/04 02:42:06;;;;;;;2.77;1.60;;;13.40;99.90;;;11.36;100.00;101599.19;3624759;39;20971;-85
2021/08/04 02:44:33;;;;;;;1.47;1.27;;;13.50;99.90;;;11.34;100.00;101593.09;3626814;39;21064;-85
2021/08/04 02:47:02;;;;;;;2.43;1.90;;;13.00;99.90;;;11.31;100.00;101604.06;3670688;22;20261;-84
2021/08/04 02:49:29;;;;;;;2.93;2.10;;;12.80;99.90;;;11.27;100.00;101607.97;3670923;22;20354;-85
2021/08/04 02:51:58;;;;;;;2.00;1.47;;;12.70;99.90;;;11.21;100.00;101641.53;3630918;39;20270;-84
2021/08/04 02:54:25;;;;;;;1.93;1.70;;;12.10;99.90;;;11.24;100.00;101613.63;3628443;39;20238;-83
2021/08/04 02:56:52;;;;;;;4.60;2.00;;;12.70;99.90;;;11.25;100.00;101591.22;3629680;39;20259;-84
2021/08/04 02:59:19;;;;;;;2.50;1.73;;;12.60;99.90;;;11.21;100.00;101585.25;3688439;22;20809;-84
2021/08/04 03:01:46;;;;;;;2.60;1.50;;;13.80;99.90;;;11.17;100.00;101594.53;3627774;39;20459;-84
2021/08/04 03:04:15;;;;;;;1.57;1.47;;;12.60;99.90;;;11.17;100.00;101607.91;3670534;22;20678;-83
2021/08/04 03:06:42;;;;;;;1.87;1.60;;;13.60;99.90;;;11.16;100.00;101592.81;3673970;22;20254;-84
2021/08/04 03:09:09;;;;;;;1.23;1.13;;;13.60;99.90;;;11.33;100.00;101594.06;3638792;39;20222;-86
2021/08/04 03:11:37;;;;;;;2.00;1.60;;;13.70;99.90;;;11.12;100.00;101557.44;3668249;22;20605;-84
2021/08/04 03:14:04;;;;;;;2.53;1.57;;;13.70;99.90;;;11.17;100.00;101546.31;3596430;39;20723;-86
2021/08/04 03:16:32;;;;;;;2.17;1.87;;;12.60;99.90;;;11.16;100.00;101542.78;3597438;39;20284;-85
2021/08/04 03:18:59;;;;;;;2.07;1.50;;;12.50;99.90;;;11.22;100.00;101538.75;3601523;39;20259;-84
2021/08/04 03:21:27;;;;;;;2.97;1.83;;;13.80;99.90;;;11.22;100.00;101544.09;3615191;39;20383;-85
2021/08/04 03:23:54;;;;;;;2.13;1.90;;;13.20;99.90;;;11.19;100.00;101560.41;3617644;39;20326;-88
2021/08/04 03:26:21;;;;;;;1.93;1.63;;;13.10;99.90;;;11.16;100.00;101566.88;3650381;22;20658;-82
2021/08/04 03:28:49;;;;;;;2.77;1.80;;;12.60;99.90;;;11.21;100.00;101553.09;3670676;22;20423;-83
2021/08/04 03:31:16;;;;;;;2.47;1.20;;;13.70;99.90;;;11.33;100.00;101591.41;3648811;39;20244;-83
2021/08/04 03:33:43;;;;;;;2.97;2.07;;;12.60;99.90;;;11.36;100.00;101594.69;3636680;39;20375;-85
2021/08/04 03:36:10;;;;;;;3.73;1.40;;;12.60;99.90;;;11.47;100.00;101564.25;3647967;39;20393;-86
2021/08/04 03:38:39;;;;;;;2.77;2.17;;;12.60;99.90;;;11.32;100.00;101573.63;3678988;22;20250;-85
2021/08/04 03:41:08;;;;;;;2.47;2.03;;;12.80;99.90;;;11.31;100.00;101590.69;3673660;22;20489;-84
2021/08/04 03:44:10;;;;;;;1.80;1.63;;;12.70;99.90;;;11.39;100.00;101580.13;3709399;22;20266;-84
2021/08/04 03:46:47;;;;;;;1.70;1.50;;;12.70;99.90;;;11.47;100.00;101580.34;3696948;22;20798;-88
2021/08/04 03:49:16;;;;;;;4.03;2.10;;;12.80;99.90;;;11.33;100.00;101580.69;3678919;22;20876;-83
2021/08/04 03:51:43;;;;;;;2.30;1.87;;;12.80;99.90;;;11.30;100.00;101588.97;3709042;22;20856;-85
2021/08/04 03:54:12;;;;;;;1.53;1.43;;;12.80;99.90;;;11.52;100.00;101603.06;3626567;39;20437;-83
2021/08/04 03:56:39;;;;;;;2.13;1.60;;;12.80;99.90;;;11.51;100.00;101609.41;3660349;22;20722;-85
2021/08/04 03:59:06;;;;;;;4.73;1.90;;;12.80;99.90;;;11.40;100.00;101609.50;3621460;39;20303;-85
2021/08/04 04:01:33;;;;;;;1.67;1.37;;;12.80;99.90;;;11.48;100.00;101619.56;3624446;39;20250;-84
2021/08/04 04:04:00;;;;;;;2.50;1.67;;;12.80;99.90;;;11.46;100.00;101618.84;3702673;22;20370;-84
2021/08/04 04:06:27;;;;;;;2.43;2.23;;;12.90;99.90;;;11.68;100.00;101653.53;3632800;39;20742;-84
2021/08/04 04:08:59;;;;;;;5.40;3.57;;;13.40;99.90;;;11.58;100.00;101644.59;3633460;39;20270;-86
2021/08/04 04:11:27;;;;;;;6.27;4.13;;;12.90;99.90;;;11.57;100.00;101626.81;3632608;39;20238;-83
2021/08/04 04:13:54;;;;;;;4.53;3.53;;;14.20;99.90;;;11.48;100.00;101623.09;3669802;22;22072;-85
2021/08/04 04:16:22;;;;;;;3.63;3.13;;;13.10;99.90;;;11.45;100.00;101630.53;3625847;39;21067;-85
2021/08/04 04:18:49;;;;;;;2.47;2.27;;;13.00;99.90;;;11.68;100.00;101637.47;3617030;39;21128;-84
2021/08/04 04:21:17;;;;;;;4.03;3.03;;;12.90;99.90;;;11.56;100.00;101622.44;3730659;22;21379;-83
2021/08/04 04:23:44;;;;;;;3.63;2.53;;;13.00;99.90;;;11.64;100.00;101619.06;3625398;39;20429;-85
2021/08/04 04:26:11;;;;;;;3.00;1.77;;;13.00;99.90;;;11.46;100.00;101632.25;3612382;39;20332;-84
2021/08/04 04:29:16;;;;;;;3.60;2.40;;;13.80;99.90;;;11.46;100.00;101653.69;3663026;22;20267;-85
2021/08/04 04:32:30;;;;;;;3.80;2.30;;;11.80;99.90;;;11.41;100.00;101648.72;3619284;22;20859;-84
2021/08/04 04:35:41;;;;;;;3.10;2.80;;;13.00;99.90;;;11.69;100.00;101671.34;3621718;39;21107;-84
2021/08/04 04:38:54;;;;;;;6.13;2.90;;;13.00;99.90;;;11.68;100.00;101671.47;3612018;39;29469;-83
2021/08/04 04:41:30;;;;;;;4.67;2.73;;;13.00;99.90;;;11.92;100.00;101666.69;3660349;22;48328;-82
2021/08/04 04:44:34;;;;;;;2.50;1.77;;;14.10;99.90;;;11.79;100.00;101636.56;3141782;22;76542;-85
2021/08/04 04:47:46;;;;;;;3.33;2.50;;;13.10;99.90;;;11.75;100.00;101641.31;3620045;39;80669;-83
2021/08/04 04:50:58;;;;;;;3.10;1.77;;;13.20;99.90;;;11.97;100.00;101628.75;3596851;39;95840;-83
2021/08/04 04:54:09;;;;;;;2.23;1.67;;;13.20;99.90;;;11.74;100.00;101610.13;3572922;39;99176;-84
2021/08/04 04:57:21;;;;;;;2.60;1.70;;;13.20;99.90;;;11.78;100.00;101616.09;3570266;39;99472;-83
2021/08/04 05:00:36;;;;;;;3.73;2.17;;;13.30;99.90;;;11.92;100.00;101639.88;3570029;39;99396;-83
2021/08/04 05:03:48;;;;;;;2.40;1.97;;;13.40;99.90;;;11.88;100.00;101622.34;3553865;39;99493;-84
2021/08/04 05:07:00;;;;;;;1.83;1.70;;;13.40;99.90;;;11.87;100.00;101626.00;3560934;39;102130;-86
2021/08/04 05:10:11;;;;;;;4.13;2.23;;;14.30;99.90;;;11.97;100.00;101634.97;3572532;39;99295;-82
2021/08/04 05:13:23;;;;;;;2.30;2.10;;;13.50;99.90;;;12.13;100.00;101639.81;3570462;39;99968;-82
2021/08/04 05:16:36;;;;;;;2.27;1.87;;;14.20;99.90;;;12.09;100.00;101609.75;3575108;39;100571;-83
2021/08/04 05:19:49;;;;;;;3.03;1.93;;;14.40;99.90;;;12.15;100.00;101595.75;3570443;39;100409;-83
2021/08/04 05:23:00;;;;;;;5.63;2.27;;;13.80;99.90;;;12.33;100.00;101590.59;3570982;39;99833;-85
2021/08/04 05:26:12;;;;;;;3.10;2.10;;;13.90;99.90;;;12.33;100.00;101563.75;3573311;39;102804;-84
2021/08/04 05:28:48;;;;;;;1.63;1.53;;;14.00;99.90;;;12.46;100.00;101560.81;3602907;22;100389;-85
2021/08/04 05:31:17;;;;;;;4.20;2.20;;;15.20;99.90;;;12.64;100.00;101563.63;3556699;39;100576;-83
2021/08/04 05:33:44;;;;;;;3.83;1.90;;;13.40;99.90;;;12.69;100.00;101564.09;3556071;39;99685;-85
2021/08/04 05:36:11;;;;;;;2.40;2.10;;;15.10;99.90;;;12.54;100.00;101551.06;3558583;39;99936;-83
2021/08/04 05:38:38;;;;;;;2.93;1.60;;;14.30;99.90;;;12.65;100.00;101544.72;3559976;39;100658;-83
2021/08/04 05:41:05;;;;;;;2.23;1.67;;;14.40;99.90;;;12.76;100.00;101520.38;3545632;39;100820;-83
2021/08/04 05:43:32;;;;;;;1.87;1.67;;;14.40;99.90;;;12.65;100.00;101517.00;3554565;39;100081;-84
2021/08/04 05:45:59;;;;;;;3.03;1.80;;;15.20;99.90;;;12.64;100.00;101493.81;3553547;39;101207;-84
2021/08/04 05:48:28;;;;;;;1.60;1.50;;;15.70;99.90;;;12.55;100.00;101479.44;3551941;39;100927;-81
2021/08/04 05:50:55;;;;;;;2.13;1.93;;;13.40;99.90;;;12.94;100.00;101490.97;3557298;39;99998;-84
2021/08/04 05:53:22;;;;;;;2.08;1.88;;;14.60;99.90;;;12.83;100.00;101480.41;3556659;39;99810;-83
2021/08/04 05:55:49;;;;;;;2.80;1.83;;;14.70;99.90;;;12.84;100.00;101460.59;3552564;39;102378;-86
2021/08/04 05:58:17;;;;;;;1.63;1.40;;;14.80;99.90;;;12.93;100.00;101475.84;3571541;39;100664;-84
2021/08/04 06:00:44;;;;;;;2.30;1.77;;;14.90;99.90;;;13.06;100.00;101480.91;3567255;39;101726;-84
2021/08/04 06:03:11;;;;;;;2.70;1.20;;;15.80;99.90;;;13.01;100.00;101480.47;3568836;39;99796;-85
2021/08/04 06:05:40;;;;;;;2.83;1.67;;;15.50;99.90;;;13.20;100.00;101475.97;3560753;39;101132;-84
2021/08/04 06:08:10;;;;;;;2.72;1.90;;;15.10;99.90;;;13.26;100.00;101479.88;3561454;39;100043;-83
2021/08/04 06:10:37;;;;;;;2.97;1.90;;;15.20;99.90;;;13.18;100.00;101444.84;3554219;39;99765;-82
2021/08/04 06:13:05;;;;;;;6.28;1.70;;;15.30;99.90;;;13.27;100.00;101439.44;3556312;39;99840;-84
2021/08/04 06:15:32;;;;;;;1.90;1.67;;;15.40;99.90;;;13.50;100.00;101436.34;3556352;39;100981;-83
2021/08/04 06:17:59;;;;;;;2.03;1.83;;;16.60;99.90;;;13.26;100.00;101428.81;3556155;39;101030;-83
2021/08/04 06:20:27;;;;;;;1.77;1.30;;;15.50;99.90;;;13.43;100.00;101417.28;3596894;22;102117;-84
2021/08/04 06:22:55;;;;;;;1.75;1.30;;;15.60;99.90;;;13.35;100.00;101406.44;3565004;39;99735;-83
2021/08/04 06:25:58;;;;;;;1.23;1.13;;;16.80;99.90;;;13.78;100.00;101412.97;3633331;22;104514;-85
2021/08/04 06:29:10;;;;;;;1.60;1.35;;;15.80;99.90;;;13.96;100.00;101389.66;3562136;39;100294;-85
2021/08/04 06:34:57;;;;;;;1.65;1.25;;;16.10;99.90;;;14.08;100.00;101366.88;3611705;22;102326;-83
2021/08/04 06:38:11;;;;;;;3.22;1.70;;;16.20;99.90;;;14.32;100.00;101350.09;3581436;39;100793;-85
2021/08/04 06:41:23;;;;;;;2.08;1.58;;;16.40;99.90;;;14.62;100.00;101336.19;3653629;22;105179;-81
2021/08/04 06:44:35;;;;;;;2.43;1.43;;;16.60;99.90;;;14.75;100.00;101306.13;3503696;22;105820;-86
2021/08/04 06:47:47;;;;;;;1.77;1.60;;;16.70;99.90;;;14.97;100.00;101302.00;2817446;22;107896;-86
2021/08/04 06:50:59;;;;;;;4.65;1.85;;;16.90;99.90;;;15.43;100.00;101269.13;3203320;22;107348;-87
2021/08/04 06:53:36;;;;;;;1.73;1.52;;;17.10;99.90;;;15.04;100.00;101224.88;3496370;22;105978;-83
2021/08/04 06:56:04;;;;;;;1.60;1.30;;;18.30;99.90;;;14.94;100.00;101186.47;3643947;22;104277;-82
2021/08/04 06:58:31;;;;;;;1.63;1.15;;;17.40;99.90;;;14.93;100.00;101160.53;3038328;22;106375;-86
2021/08/04 07:01:34;;;;;;;1.98;1.33;;;18.50;99.90;;;15.39;100.00;101134.78;3636586;22;103365;-88
2021/08/04 07:04:10;;;;;;;2.60;1.33;;;17.50;99.90;;;15.20;100.00;101098.22;3502234;22;106675;-89
2021/08/04 07:07:23;;;;;;;4.32;1.20;;;17.70;99.90;;;15.42;100.00;101075.97;3139540;22;107049;-85
2021/08/04 07:10:00;;;;;;;0.82;0.82;;;17.80;99.90;;;15.18;100.00;101051.72;3503132;22;106878;-85
2021/08/04 07:13:04;;;;;;;1.75;1.48;;;18.80;99.90;;;15.26;100.00;101027.44;3689565;22;104296;-86
2021/08/04 07:16:17;;;;;;;1.67;1.10;;;18.00;99.90;;;15.16;100.00;101013.31;3584543;39;100134;-84
2021/08/04 07:19:29;;;;;;;1.25;1.13;;;18.00;99.90;;;15.28;100.00;100997.63;3579971;39;101669;-88
2021/08/04 07:22:40;;;;;;;1.23;1.00;;;18.60;99.90;;;15.72;100.00;100979.97;3585580;39;100702;-86
2021/08/04 07:25:54;;;;;;;1.25;0.90;;;18.60;99.90;;;15.64;100.00;100960.28;3608787;22;106318;-85
2021/08/04 07:29:06;;;;;;;2.60;1.63;;;18.20;99.90;;;16.08;100.00;100930.88;3589595;22;104771;-83
2021/08/04 07:32:17;;;;;;;2.67;1.48;;;19.20;99.90;;;16.20;100.00;100856.53;3539396;39;102407;-85
2021/08/04 07:35:29;;;;;;;6.45;1.33;;;18.50;99.90;;;16.76;100.00;100803.91;3555603;39;100161;-84
2021/08/04 07:38:41;;;;;;;1.45;1.35;;;18.70;99.90;;;16.58;100.00;100727.72;3539663;39;101627;-84
2021/08/04 07:41:55;;;;;;;2.25;1.00;;;19.50;99.90;;;16.01;100.00;100654.63;3535475;39;102536;-85
2021/08/04 07:45:07;;;;;;;1.05;0.80;;;19.10;99.90;;;16.47;100.00;100630.97;3541531;39;100423;-85
2021/08/04 07:47:42;;;;;;;3.67;1.13;;;19.20;99.90;;;16.76;100.00;100559.84;3624067;22;102674;-84
2021/08/04 07:50:11;;;;;;;1.80;1.10;;;20.30;99.90;;;16.47;100.00;100469.72;3582310;39;100923;-85
2021/08/04 07:52:38;;;;;;;1.10;1.02;;;19.40;99.90;;;16.33;100.00;100422.00;3574850;39;102525;-85
2021/08/04 07:55:06;;;;;;;0.75;0.68;;;19.50;99.90;;;16.19;100.00;100406.72;3583083;39;100010;-84
2021/08/04 07:57:35;;;;;;;1.52;1.08;;;19.60;99.90;;;16.79;100.00;100425.19;3571813;39;99749;-84
2021/08/04 08:00:05;;;;;;;1.45;0.88;;;19.60;99.90;;;17.00;100.00;100399.16;3589491;39;100444;-85
2021/08/04 08:02:38;;;;;;;1.45;0.90;;;20.60;99.90;;;17.14;100.00;100371.19;3583586;39;100472;-84
2021/08/04 08:05:07;;;;;;;0.57;0.57;;;20.00;99.90;;;17.11;100.00;100323.75;3582468;39;100318;-84
2021/08/04 08:07:34;;;;;;;1.77;1.02;;;20.10;99.90;;;17.47;100.00;100265.84;3607087;22;101382;-84
2021/08/04 08:10:03;;;;;;;1.63;0.85;;;20.20;99.90;;;17.44;100.00;100214.84;3629024;22;104690;-87
2021/08/04 08:12:31;;;;;;;1.67;1.08;;;20.40;99.90;;;17.27;100.00;100173.84;3579543;39;100698;-83
2021/08/04 08:14:59;;;;;;;1.17;0.95;;;20.60;99.90;;;17.38;100.00;100151.63;3683433;22;104328;-84
2021/08/04 08:17:27;;;;;;;1.27;0.77;;;20.60;99.90;;;17.43;100.00;100116.66;3611490;22;105070;-87
2021/08/04 08:19:54;;;;;;;1.20;0.88;;;21.70;99.90;;;17.19;100.00;100123.47;3586269;22;102014;-84
2021/08/04 08:22:22;;;;;;;2.33;1.30;;;21.40;99.90;;;17.42;100.00;100116.88;3580186;22;104413;-86
2021/08/04 08:24:49;;;;;;;0.98;0.90;;;21.30;99.90;;;17.56;100.00;100103.13;3642070;22;105724;-84
2021/08/04 08:27:16;;;;;;;1.00;0.85;;;21.80;99.90;;;17.52;100.00;100066.75;3571366;39;101036;-82
2021/08/04 08:29:43;;;;;;;1.77;1.15;;;20.50;99.90;;;17.45;100.00;100074.00;3568964;39;100743;-85
2021/08/04 08:32:12;;;;;;;1.90;1.10;;;21.90;99.90;;;17.25;100.00;100067.75;3565768;39;100652;-84
2021/08/04 08:34:40;;;;;;;0.88;0.60;;;21.00;99.90;;;17.29;100.00;100071.72;3563254;39;100072;-87
2021/08/04 08:37:07;;;;;;;1.50;1.15;;;21.10;99.90;;;17.54;100.00;100069.25;3573532;39;99680;-85
2021/08/04 08:39:34;;;;;;;1.13;1.00;;;21.10;99.90;;;17.29;100.00;100049.25;3557544;39;101235;-87
2021/08/04 08:42:06;;;;;;;4.93;1.08;;;22.10;99.90;;;18.02;100.00;100044.63;3543568;39;101795;-84
2021/08/04 08:44:33;;;;;;;1.45;0.82;;;21.20;99.90;;;17.05;100.00;100027.19;3559926;39;99815;-85
2021/08/04 08:47:06;;;;;;;4.00;1.23;;;21.30;99.90;;;17.82;100.00;100048.19;3602715;22;104534;-84
2021/08/04 08:49:35;;;;;;;0.88;0.88;;;21.20;99.90;;;17.63;100.00;100031.97;3563312;39;101412;-85
2021/08/04 08:52:03;;;;;;;0.80;0.80;;;21.60;99.90;;;17.19;100.00;100061.28;3568966;39;100370;-82
2021/08/04 08:54:30;;;;;;;0.77;0.77;;;21.40;99.90;;;17.35;100.00;100081.69;3642737;22;104798;-84
2021/08/04 08:56:57;;;;;;;1.55;1.20;;;22.20;99.90;;;17.47;100.00;100079.22;3597223;22;103078;-83
2021/08/04 08:59:24;;;;;;;1.45;1.00;;;21.30;99.90;;;17.90;100.00;100094.00;3594684;22;103347;-84
2021/08/04 09:01:52;;;;;;;2.72;1.35;;;21.50;99.90;;;17.27;100.00;100081.06;3548749;39;102930;-87
2021/08/04 09:04:19;;;;;;;1.08;0.98;;;22.30;99.90;;;17.34;100.00;100080.03;3554770;39;99838;-84
2021/08/04 09:06:51;;;;;;;4.05;1.70;;;21.50;99.90;;;18.42;100.00;100080.56;3555988;39;99716;-85
2021/08/04 09:09:22;;;;;;;1.35;0.90;;;21.30;99.90;;;18.65;100.00;100049.22;3554229;39;100179;-85
2021/08/04 09:11:52;;;;;;;1.92;1.10;;;21.90;99.90;;;18.99;100.00;100009.19;3555122;39;99819;-85
2021/08/04 09:14:30;;;;;;;1.25;0.93;;;22.10;99.90;;;18.24;100.00;100095.59;3558196;39;100214;-85
2021/08/04 09:17:04;;;;;;;1.20;1.10;;;23.30;99.90;;;18.02;100.00;100112.31;3547336;39;99656;-84
2021/08/04 09:19:33;;;;;;;1.95;1.02;;;22.60;99.90;;;19.26;100.00;100127.28;3546372;39;99985;-84
2021/08/04 09:22:16;;;;;;;1.58;1.17;;;23.20;99.90;;;18.79;100.00;100090.59;3542629;39;100493;-85
2021/08/04 09:25:02;;;;;;;0.70;0.70;;;22.90;99.90;;;18.85;100.00;100092.47;3545043;39;101072;-84
2021/08/04 09:27:42;;;;;;;0.52;0.52;;;23.60;99.90;;;18.40;100.00;100156.63;3536953;39;99906;-85
2021/08/04 09:30:11;;;;;;;1.10;1.05;;;23.30;99.90;;;18.20;100.00;100254.13;3530205;39;101060;-84
2021/08/04 09:32:38;;;;;;;1.23;0.70;;;23.50;99.90;;;18.39;100.00;100267.88;3536077;39;99838;-84
2021/08/04 09:35:15;;;;;;;0.82;0.82;;;23.60;99.90;;;18.64;100.00;100258.09;3529912;39;101947;-85
2021/08/04 09:37:46;;;;;;;1.30;1.00;;;23.80;99.90;;;18.56;100.00;100250.13;3536697;39;99716;-83
2021/08/04 09:40:18;;;;;;;1.52;1.23;;;24.00;99.90;;;18.97;100.00;100250.72;3529377;39;100644;-83
2021/08/04 09:42:49;;;;;;;1.00;0.90;;;24.10;99.90;;;19.11;100.00;100324.72;3533127;39;101099;-84
2021/08/04 09:45:20;;;;;;;1.15;1.05;;;24.40;99.90;;;19.60;100.00;100431.91;3536019;39;100057;-83
2021/08/04 09:48:03;;;;;;;1.77;1.15;;;24.40;99.80;;;20.27;100.00;100571.88;3531059;39;99721;-86
2021/08/04 09:50:53;;;;;;;0.65;0.63;;;24.70;99.70;;;19.71;100.00;100559.66;3534654;39;99906;-82
2021/08/04 09:53:28;;;;;;;1.00;0.90;;;24.90;98.50;;;18.48;100.00;100527.56;3527242;39;100718;-82
2021/08/04 09:56:13;;;;;;;0.57;0.57;;;25.10;96.70;;;19.51;100.00;100571.59;3533640;39;100367;-85
2021/08/04 09:58:44;;;;;;;0.65;0.60;;;25.70;97.10;;;20.35;100.00;100569.75;3529792;39;99847;-82
2021/08/04 10:01:14;;;;;;;1.00;0.68;;;25.20;96.90;;;20.37;100.00;100545.94;3533771;39;100660;-83
2021/08/04 10:04:02;;;;;;;0.60;0.60;;;25.30;96.70;;;20.09;100.00;100508.19;3521497;39;103143;-84
2021/08/04 10:06:30;;;;;;;1.27;0.80;;;25.60;96.30;;;19.59;100.00;100498.09;3553753;39;100276;-83
2021/08/04 10:09:00;;;;;;;1.08;0.98;;;25.60;94.00;;;19.38;100.00;100513.53;3587583;22;100039;-85
2021/08/04 10:11:28;;;;;;;1.08;0.60;;;25.70;92.70;;;20.12;100.00;100525.09;3531550;39;99373;-83
2021/08/04 10:13:58;;;;;;;0.50;0.50;;;25.50;92.90;;;19.89;100.00;100491.13;3532711;39;100610;-85
2021/08/04 10:16:30;;;;;;;1.10;0.90;;;25.80;91.90;;;20.11;100.00;100499.81;3535264;39;100145;-82
2021/08/04 10:18:59;;;;;;;1.00;0.75;;;25.20;91.30;;;19.81;100.00;100464.19;3532945;39;99258;-84
2021/08/04 10:21:26;;;;;;;0.90;0.55;;;26.10;90.10;;;19.82;100.00;100475.88;3528648;39;99813;-83
2021/08/04 10:23:54;;;;;;;1.23;0.70;;;25.20;90.60;;;20.96;100.00;100454.16;3537166;39;100400;-82
2021/08/04 10:26:23;;;;;;;0.50;0.50;;;25.40;91.00;;;21.05;100.00;100388.34;3538907;39;99347;-83
2021/08/04 10:28:55;;;;;;;0.75;0.75;;;25.60;90.70;;;21.21;100.00;100367.94;3538298;39;99591;-85
2021/08/04 10:31:22;;;;;;;1.13;0.80;;;26.00;90.30;;;21.81;100.00;100351.72;3540410;39;100486;-84
2021/08/04 10:33:49;;;;;;;0.75;0.60;;;26.80;90.50;;;20.63;100.00;100308.44;3547176;39;99240;-84
2021/08/04 10:36:20;;;;;;;0.55;0.55;;;26.40;88.90;;;21.43;100.00;100306.53;3541890;39;100204;-83
2021/08/04 10:38:50;;;;;;;1.00;0.75;;;26.70;86.30;;;20.71;100.00;100286.41;3543340;39;99592;-83
2021/08/04 10:41:21;;;;;;;0.95;0.75;;;27.30;85.20;;;20.43;100.00;100273.25;3550509;39;95142;-83
2021/08/04 10:43:52;;;;;;;1.20;0.70;;;27.20;82.40;;;20.17;100.00;100268.00;3562328;39;97804;-82